sensor_id;sensor_type;location;lat;lon;timestamp;temperature;humidity
23618;DHT22;18207;32.078;34.818;2022-08-21T00:00:45;32.40;49.40
23618;DHT22;18207;32.078;34.818;2022-08-21T00:03:16;32.40;49.40
23618;DHT22;18207;32.078;34.818;2022-08-21T00:05:49;32.40;49.50
23618;DHT22;18207;32.078;34.818;2022-08-21T00:08:22;32.40;49.50
23618;DHT22;18207;32.078;34.818;2022-08-21T00:10:53;32.30;49.60
23618;DHT22;18207;32.078;34.818;2022-08-21T00:13:24;32.30;49.50
23618;DHT22;18207;32.078;34.818;2022-08-21T00:15:55;32.30;49.60
23618;DHT22;18207;32.078;34.818;2022-08-21T00:18:26;32.30;49.70
23618;DHT22;18207;32.078;34.818;2022-08-21T00:20:57;32.20;49.70
23618;DHT22;18207;32.078;34.818;2022-08-21T00:23:33;32.20;49.70
23618;DHT22;18207;32.078;34.818;2022-08-21T00:26:05;32.20;49.70
23618;DHT22;18207;32.078;34.818;2022-08-21T00:28:36;32.20;49.70
23618;DHT22;18207;32.078;34.818;2022-08-21T00:31:07;32.20;49.70
23618;DHT22;18207;32.078;34.818;2022-08-21T00:33:38;32.20;49.70
23618;DHT22;18207;32.078;34.818;2022-08-21T00:36:09;32.20;49.80
23618;DHT22;18207;32.078;34.818;2022-08-21T00:38:42;32.20;49.80
23618;DHT22;18207;32.078;34.818;2022-08-21T00:41:13;32.20;49.90
23618;DHT22;18207;32.078;34.818;2022-08-21T00:44:04;32.20;49.90
23618;DHT22;18207;32.078;34.818;2022-08-21T00:46:36;32.10;49.80
23618;DHT22;18207;32.078;34.818;2022-08-21T00:49:08;32.10;49.80
23618;DHT22;18207;32.078;34.818;2022-08-21T00:51:45;32.10;49.80
23618;DHT22;18207;32.078;34.818;2022-08-21T00:54:25;32.00;49.90
23618;DHT22;18207;32.078;34.818;2022-08-21T00:57:00;32.00;49.90
23618;DHT22;18207;32.078;34.818;2022-08-21T00:59:37;32.00;49.90
23618;DHT22;18207;32.078;34.818;2022-08-21T01:02:10;32.00;50.10
23618;DHT22;18207;32.078;34.818;2022-08-21T01:04:42;32.00;50.00
23618;DHT22;18207;32.078;34.818;2022-08-21T01:07:13;32.00;50.00
23618;DHT22;18207;32.078;34.818;2022-08-21T01:09:48;32.00;50.10
23618;DHT22;18207;32.078;34.818;2022-08-21T01:12:19;31.90;50.10
23618;DHT22;18207;32.078;34.818;2022-08-21T01:14:49;31.90;50.10
23618;DHT22;18207;32.078;34.818;2022-08-21T01:17:21;32.00;50.30
23618;DHT22;18207;32.078;34.818;2022-08-21T01:19:53;31.90;50.30
23618;DHT22;18207;32.078;34.818;2022-08-21T01:22:29;31.90;50.30
23618;DHT22;18207;32.078;34.818;2022-08-21T01:25:00;31.90;50.30
23618;DHT22;18207;32.078;34.818;2022-08-21T01:27:32;31.90;50.30
23618;DHT22;18207;32.078;34.818;2022-08-21T01:30:09;31.90;50.40
23618;DHT22;18207;32.078;34.818;2022-08-21T01:32:43;31.90;50.50
23618;DHT22;18207;32.078;34.818;2022-08-21T01:35:17;31.90;50.50
23618;DHT22;18207;32.078;34.818;2022-08-21T01:37:51;31.90;50.50
23618;DHT22;18207;32.078;34.818;2022-08-21T01:40:22;31.90;50.50
23618;DHT22;18207;32.078;34.818;2022-08-21T01:42:53;31.90;50.50
23618;DHT22;18207;32.078;34.818;2022-08-21T01:45:24;31.80;50.50
23618;DHT22;18207;32.078;34.818;2022-08-21T01:47:55;31.90;50.60
23618;DHT22;18207;32.078;34.818;2022-08-21T01:50:26;31.90;50.60
23618;DHT22;18207;32.078;34.818;2022-08-21T01:52:58;31.80;50.60
23618;DHT22;18207;32.078;34.818;2022-08-21T01:55:29;31.80;50.60
23618;DHT22;18207;32.078;34.818;2022-08-21T01:58:00;31.80;50.60
23618;DHT22;18207;32.078;34.818;2022-08-21T02:00:31;31.80;50.60
23618;DHT22;18207;32.078;34.818;2022-08-21T02:03:01;31.90;50.60
23618;DHT22;18207;32.078;34.818;2022-08-21T02:05:33;31.80;50.60
23618;DHT22;18207;32.078;34.818;2022-08-21T02:08:06;31.80;50.60
23618;DHT22;18207;32.078;34.818;2022-08-21T02:10:37;31.80;50.70
23618;DHT22;18207;32.078;34.818;2022-08-21T02:13:15;31.80;50.80
23618;DHT22;18207;32.078;34.818;2022-08-21T02:15:46;31.80;50.70
23618;DHT22;18207;32.078;34.818;2022-08-21T02:18:17;31.80;50.80
23618;DHT22;18207;32.078;34.818;2022-08-21T02:20:49;31.80;50.80
23618;DHT22;18207;32.078;34.818;2022-08-21T02:23:25;31.80;50.80
23618;DHT22;18207;32.078;34.818;2022-08-21T02:25:56;31.80;50.80
23618;DHT22;18207;32.078;34.818;2022-08-21T02:28:28;31.80;50.80
23618;DHT22;18207;32.078;34.818;2022-08-21T02:30:58;31.80;50.80
23618;DHT22;18207;32.078;34.818;2022-08-21T02:33:30;31.80;50.80
23618;DHT22;18207;32.078;34.818;2022-08-21T02:36:02;31.80;50.90
23618;DHT22;18207;32.078;34.818;2022-08-21T02:38:37;31.80;50.90
23618;DHT22;18207;32.078;34.818;2022-08-21T02:41:12;31.80;50.90
23618;DHT22;18207;32.078;34.818;2022-08-21T02:43:46;31.80;50.90
23618;DHT22;18207;32.078;34.818;2022-08-21T02:46:18;31.80;51.00
23618;DHT22;18207;32.078;34.818;2022-08-21T02:48:51;31.80;50.90
23618;DHT22;18207;32.078;34.818;2022-08-21T02:51:21;31.80;50.90
23618;DHT22;18207;32.078;34.818;2022-08-21T02:53:55;31.80;50.90
23618;DHT22;18207;32.078;34.818;2022-08-21T02:56:26;31.80;51.00
23618;DHT22;18207;32.078;34.818;2022-08-21T02:58:58;31.80;50.90
23618;DHT22;18207;32.078;34.818;2022-08-21T03:01:28;31.80;50.90
23618;DHT22;18207;32.078;34.818;2022-08-21T03:03:59;31.80;51.00
23618;DHT22;18207;32.078;34.818;2022-08-21T03:06:29;31.80;51.00
23618;DHT22;18207;32.078;34.818;2022-08-21T03:09:04;31.80;51.20
23618;DHT22;18207;32.078;34.818;2022-08-21T03:11:35;31.80;51.10
23618;DHT22;18207;32.078;34.818;2022-08-21T03:14:05;31.80;51.10
23618;DHT22;18207;32.078;34.818;2022-08-21T03:16:36;31.80;51.10
23618;DHT22;18207;32.078;34.818;2022-08-21T03:19:07;31.80;51.00
23618;DHT22;18207;32.078;34.818;2022-08-21T03:21:38;31.80;51.00
23618;DHT22;18207;32.078;34.818;2022-08-21T03:24:11;31.80;51.00
23618;DHT22;18207;32.078;34.818;2022-08-21T03:26:45;31.80;51.00
23618;DHT22;18207;32.078;34.818;2022-08-21T03:29:16;31.80;51.10
23618;DHT22;18207;32.078;34.818;2022-08-21T03:31:46;31.80;51.10
23618;DHT22;18207;32.078;34.818;2022-08-21T03:34:17;31.80;51.20
23618;DHT22;18207;32.078;34.818;2022-08-21T03:36:48;31.70;51.10
23618;DHT22;18207;32.078;34.818;2022-08-21T03:39:20;31.80;51.20
23618;DHT22;18207;32.078;34.818;2022-08-21T03:41:51;31.80;51.20
23618;DHT22;18207;32.078;34.818;2022-08-21T03:44:22;31.70;51.10
23618;DHT22;18207;32.078;34.818;2022-08-21T03:46:54;31.70;51.10
23618;DHT22;18207;32.078;34.818;2022-08-21T03:49:26;31.70;51.10
23618;DHT22;18207;32.078;34.818;2022-08-21T03:51:57;31.70;51.10
23618;DHT22;18207;32.078;34.818;2022-08-21T03:54:30;31.80;51.20
23618;DHT22;18207;32.078;34.818;2022-08-21T03:57:02;31.80;51.20
23618;DHT22;18207;32.078;34.818;2022-08-21T03:59:33;31.80;51.20
23618;DHT22;18207;32.078;34.818;2022-08-21T04:02:06;31.70;51.10
23618;DHT22;18207;32.078;34.818;2022-08-21T04:04:37;31.70;51.10
23618;DHT22;18207;32.078;34.818;2022-08-21T04:07:07;31.70;51.10
23618;DHT22;18207;32.078;34.818;2022-08-21T04:09:40;31.80;51.20
23618;DHT22;18207;32.078;34.818;2022-08-21T04:12:10;31.80;51.20
23618;DHT22;18207;32.078;34.818;2022-08-21T04:14:41;31.80;51.20
23618;DHT22;18207;32.078;34.818;2022-08-21T04:17:12;31.80;51.20
23618;DHT22;18207;32.078;34.818;2022-08-21T04:19:44;31.80;51.20
23618;DHT22;18207;32.078;34.818;2022-08-21T04:22:20;31.80;51.20
23618;DHT22;18207;32.078;34.818;2022-08-21T04:24:52;31.80;51.20
23618;DHT22;18207;32.078;34.818;2022-08-21T04:27:23;31.80;51.20
23618;DHT22;18207;32.078;34.818;2022-08-21T04:29:53;31.80;51.20
23618;DHT22;18207;32.078;34.818;2022-08-21T04:32:25;31.90;51.20
23618;DHT22;18207;32.078;34.818;2022-08-21T04:34:59;31.90;51.20
23618;DHT22;18207;32.078;34.818;2022-08-21T04:37:32;31.90;51.20
23618;DHT22;18207;32.078;34.818;2022-08-21T04:40:13;31.90;51.20
23618;DHT22;18207;32.078;34.818;2022-08-21T04:42:47;31.90;51.30
23618;DHT22;18207;32.078;34.818;2022-08-21T04:45:21;32.00;51.30
23618;DHT22;18207;32.078;34.818;2022-08-21T04:47:55;32.00;51.30
23618;DHT22;18207;32.078;34.818;2022-08-21T04:50:31;32.00;51.30
23618;DHT22;18207;32.078;34.818;2022-08-21T04:53:10;32.00;51.30
23618;DHT22;18207;32.078;34.818;2022-08-21T04:55:47;32.10;51.40
23618;DHT22;18207;32.078;34.818;2022-08-21T04:58:21;32.10;51.40
23618;DHT22;18207;32.078;34.818;2022-08-21T05:00:56;32.10;51.40
23618;DHT22;18207;32.078;34.818;2022-08-21T05:03:32;32.20;51.40
23618;DHT22;18207;32.078;34.818;2022-08-21T05:06:08;32.20;51.40
23618;DHT22;18207;32.078;34.818;2022-08-21T05:08:43;32.20;51.40
23618;DHT22;18207;32.078;34.818;2022-08-21T05:11:30;32.30;51.50
23618;DHT22;18207;32.078;34.818;2022-08-21T05:14:03;32.30;51.50
23618;DHT22;18207;32.078;34.818;2022-08-21T05:16:34;32.40;51.50
23618;DHT22;18207;32.078;34.818;2022-08-21T05:19:06;32.40;51.50
23618;DHT22;18207;32.078;34.818;2022-08-21T05:21:40;32.50;51.50
23618;DHT22;18207;32.078;34.818;2022-08-21T05:24:13;32.50;51.40
23618;DHT22;18207;32.078;34.818;2022-08-21T05:26:48;32.50;51.40
23618;DHT22;18207;32.078;34.818;2022-08-21T05:29:18;32.50;51.30
23618;DHT22;18207;32.078;34.818;2022-08-21T05:31:49;32.50;51.20
23618;DHT22;18207;32.078;34.818;2022-08-21T05:34:22;32.60;51.30
23618;DHT22;18207;32.078;34.818;2022-08-21T05:36:53;32.60;51.30
23618;DHT22;18207;32.078;34.818;2022-08-21T05:39:23;32.70;51.10
23618;DHT22;18207;32.078;34.818;2022-08-21T05:42:16;32.70;51.00
23618;DHT22;18207;32.078;34.818;2022-08-21T05:44:48;32.80;51.10
23618;DHT22;18207;32.078;34.818;2022-08-21T05:47:20;32.80;51.10
23618;DHT22;18207;32.078;34.818;2022-08-21T05:49:50;32.80;51.10
23618;DHT22;18207;32.078;34.818;2022-08-21T05:52:21;32.90;51.10
23618;DHT22;18207;32.078;34.818;2022-08-21T05:54:51;32.90;51.00
23618;DHT22;18207;32.078;34.818;2022-08-21T05:57:25;33.00;50.90
23618;DHT22;18207;32.078;34.818;2022-08-21T05:59:56;33.00;50.90
23618;DHT22;18207;32.078;34.818;2022-08-21T06:02:28;33.00;50.80
23618;DHT22;18207;32.078;34.818;2022-08-21T06:04:59;33.00;50.80
23618;DHT22;18207;32.078;34.818;2022-08-21T06:07:30;33.10;50.70
23618;DHT22;18207;32.078;34.818;2022-08-21T06:10:02;33.00;50.70
23618;DHT22;18207;32.078;34.818;2022-08-21T06:12:35;33.00;50.70
23618;DHT22;18207;32.078;34.818;2022-08-21T06:15:08;33.10;50.60
23618;DHT22;18207;32.078;34.818;2022-08-21T06:17:39;33.10;50.60
23618;DHT22;18207;32.078;34.818;2022-08-21T06:20:10;33.20;50.60
23618;DHT22;18207;32.078;34.818;2022-08-21T06:22:41;33.20;50.50
23618;DHT22;18207;32.078;34.818;2022-08-21T06:25:12;33.20;50.50
23618;DHT22;18207;32.078;34.818;2022-08-21T06:27:43;33.20;50.50
23618;DHT22;18207;32.078;34.818;2022-08-21T06:30:14;33.30;50.60
23618;DHT22;18207;32.078;34.818;2022-08-21T06:32:44;33.30;50.60
23618;DHT22;18207;32.078;34.818;2022-08-21T06:35:15;33.30;50.50
23618;DHT22;18207;32.078;34.818;2022-08-21T06:37:46;33.40;50.40
23618;DHT22;18207;32.078;34.818;2022-08-21T06:40:16;33.40;50.40
23618;DHT22;18207;32.078;34.818;2022-08-21T06:42:50;33.40;50.40
23618;DHT22;18207;32.078;34.818;2022-08-21T06:45:22;33.40;50.30
23618;DHT22;18207;32.078;34.818;2022-08-21T06:47:54;33.40;50.10
23618;DHT22;18207;32.078;34.818;2022-08-21T06:50:25;33.50;50.10
23618;DHT22;18207;32.078;34.818;2022-08-21T06:53:02;33.50;50.10
23618;DHT22;18207;32.078;34.818;2022-08-21T06:55:34;33.50;50.00
23618;DHT22;18207;32.078;34.818;2022-08-21T06:58:07;33.60;50.10
23618;DHT22;18207;32.078;34.818;2022-08-21T07:00:40;33.60;50.10
23618;DHT22;18207;32.078;34.818;2022-08-21T07:03:24;33.70;50.20
23618;DHT22;18207;32.078;34.818;2022-08-21T07:05:57;33.70;50.20
23618;DHT22;18207;32.078;34.818;2022-08-21T07:08:32;33.80;50.30
23618;DHT22;18207;32.078;34.818;2022-08-21T07:11:12;33.90;50.20
23618;DHT22;18207;32.078;34.818;2022-08-21T07:13:56;34.00;50.10
23618;DHT22;18207;32.078;34.818;2022-08-21T07:16:27;34.00;50.00
23618;DHT22;18207;32.078;34.818;2022-08-21T07:18:57;34.10;50.00
23618;DHT22;18207;32.078;34.818;2022-08-21T07:21:28;34.20;50.00
23618;DHT22;18207;32.078;34.818;2022-08-21T07:23:59;34.20;50.00
23618;DHT22;18207;32.078;34.818;2022-08-21T07:26:31;34.30;50.10
23618;DHT22;18207;32.078;34.818;2022-08-21T07:29:03;34.40;50.00
23618;DHT22;18207;32.078;34.818;2022-08-21T07:31:34;34.40;49.90
23618;DHT22;18207;32.078;34.818;2022-08-21T07:34:05;34.50;50.50
23618;DHT22;18207;32.078;34.818;2022-08-21T07:36:36;34.60;50.00
23618;DHT22;18207;32.078;34.818;2022-08-21T07:39:07;34.60;49.80
23618;DHT22;18207;32.078;34.818;2022-08-21T07:41:37;34.70;49.70
23618;DHT22;18207;32.078;34.818;2022-08-21T07:44:10;34.80;49.70
23618;DHT22;18207;32.078;34.818;2022-08-21T07:46:41;34.90;49.60
23618;DHT22;18207;32.078;34.818;2022-08-21T07:49:12;34.90;49.60
23618;DHT22;18207;32.078;34.818;2022-08-21T07:51:42;34.90;49.40
23618;DHT22;18207;32.078;34.818;2022-08-21T07:54:14;35.00;49.30
23618;DHT22;18207;32.078;34.818;2022-08-21T07:56:59;35.10;49.30
23618;DHT22;18207;32.078;34.818;2022-08-21T07:59:32;35.10;49.20
23618;DHT22;18207;32.078;34.818;2022-08-21T08:02:03;35.20;49.10
23618;DHT22;18207;32.078;34.818;2022-08-21T08:04:34;35.30;49.10
23618;DHT22;18207;32.078;34.818;2022-08-21T08:07:17;35.30;49.00
23618;DHT22;18207;32.078;34.818;2022-08-21T08:09:48;35.40;49.00
23618;DHT22;18207;32.078;34.818;2022-08-21T08:12:19;35.50;48.90
23618;DHT22;18207;32.078;34.818;2022-08-21T08:14:51;35.50;48.80
23618;DHT22;18207;32.078;34.818;2022-08-21T08:17:22;35.60;48.70
23618;DHT22;18207;32.078;34.818;2022-08-21T08:19:53;35.70;48.60
23618;DHT22;18207;32.078;34.818;2022-08-21T08:22:24;35.70;48.50
23618;DHT22;18207;32.078;34.818;2022-08-21T08:24:55;35.80;48.50
23618;DHT22;18207;32.078;34.818;2022-08-21T08:27:27;35.80;48.30
23618;DHT22;18207;32.078;34.818;2022-08-21T08:29:59;35.90;48.30
23618;DHT22;18207;32.078;34.818;2022-08-21T08:32:30;35.90;48.20
23618;DHT22;18207;32.078;34.818;2022-08-21T08:35:01;35.90;48.10
23618;DHT22;18207;32.078;34.818;2022-08-21T08:37:34;36.00;48.10
23618;DHT22;18207;32.078;34.818;2022-08-21T08:40:11;36.00;48.00
23618;DHT22;18207;32.078;34.818;2022-08-21T08:42:45;36.00;47.90
23618;DHT22;18207;32.078;34.818;2022-08-21T08:45:22;36.10;47.90
23618;DHT22;18207;32.078;34.818;2022-08-21T08:47:58;36.10;47.70
23618;DHT22;18207;32.078;34.818;2022-08-21T08:50:43;36.20;47.70
23618;DHT22;18207;32.078;34.818;2022-08-21T08:53:19;36.20;47.60
23618;DHT22;18207;32.078;34.818;2022-08-21T08:56:04;36.20;47.40
23618;DHT22;18207;32.078;34.818;2022-08-21T08:58:39;36.30;47.30
23618;DHT22;18207;32.078;34.818;2022-08-21T09:01:18;36.30;47.30
23618;DHT22;18207;32.078;34.818;2022-08-21T09:03:52;36.30;47.10
23618;DHT22;18207;32.078;34.818;2022-08-21T09:06:33;36.30;47.10
23618;DHT22;18207;32.078;34.818;2022-08-21T09:09:19;36.40;46.90
23618;DHT22;18207;32.078;34.818;2022-08-21T09:12:03;36.40;47.20
23618;DHT22;18207;32.078;34.818;2022-08-21T09:14:56;36.40;46.50
23618;DHT22;18207;32.078;34.818;2022-08-21T09:17:42;36.40;46.20
23618;DHT22;18207;32.078;34.818;2022-08-21T09:20:47;36.50;46.30
23618;DHT22;18207;32.078;34.818;2022-08-21T09:23:39;36.40;46.10
23618;DHT22;18207;32.078;34.818;2022-08-21T09:26:17;36.50;46.10
23618;DHT22;18207;32.078;34.818;2022-08-21T09:28:52;36.40;46.10
23618;DHT22;18207;32.078;34.818;2022-08-21T09:31:28;36.40;46.00
23618;DHT22;18207;32.078;34.818;2022-08-21T09:34:05;36.50;45.90
23618;DHT22;18207;32.078;34.818;2022-08-21T09:36:40;36.50;45.80
23618;DHT22;18207;32.078;34.818;2022-08-21T09:39:22;36.50;45.70
23618;DHT22;18207;32.078;34.818;2022-08-21T09:42:00;36.60;45.80
23618;DHT22;18207;32.078;34.818;2022-08-21T09:44:36;36.50;45.50
23618;DHT22;18207;32.078;34.818;2022-08-21T09:47:11;36.60;45.50
23618;DHT22;18207;32.078;34.818;2022-08-21T09:49:45;36.60;45.40
23618;DHT22;18207;32.078;34.818;2022-08-21T09:52:18;36.60;45.30
23618;DHT22;18207;32.078;34.818;2022-08-21T09:54:52;36.60;45.20
23618;DHT22;18207;32.078;34.818;2022-08-21T09:57:27;36.60;45.20
23618;DHT22;18207;32.078;34.818;2022-08-21T10:00:26;36.60;45.20
23618;DHT22;18207;32.078;34.818;2022-08-21T10:03:11;36.60;45.20
23618;DHT22;18207;32.078;34.818;2022-08-21T10:05:56;36.60;45.10
23618;DHT22;18207;32.078;34.818;2022-08-21T10:08:31;36.70;44.90
23618;DHT22;18207;32.078;34.818;2022-08-21T10:11:07;36.70;45.10
23618;DHT22;18207;32.078;34.818;2022-08-21T10:13:50;36.70;45.00
23618;DHT22;18207;32.078;34.818;2022-08-21T10:16:32;36.70;44.80
23618;DHT22;18207;32.078;34.818;2022-08-21T10:19:18;36.70;44.90
23618;DHT22;18207;32.078;34.818;2022-08-21T10:22:11;36.70;44.90
23618;DHT22;18207;32.078;34.818;2022-08-21T10:24:55;36.70;44.70
23618;DHT22;18207;32.078;34.818;2022-08-21T10:27:40;36.70;44.80
23618;DHT22;18207;32.078;34.818;2022-08-21T10:30:21;36.70;44.70
23618;DHT22;18207;32.078;34.818;2022-08-21T10:33:24;36.70;44.70
23618;DHT22;18207;32.078;34.818;2022-08-21T10:36:13;36.70;44.40
23618;DHT22;18207;32.078;34.818;2022-08-21T10:39:06;36.80;44.60
23618;DHT22;18207;32.078;34.818;2022-08-21T10:42:35;36.70;44.40
23618;DHT22;18207;32.078;34.818;2022-08-21T10:45:22;36.70;44.20
23618;DHT22;18207;32.078;34.818;2022-08-21T10:48:05;36.70;44.40
23618;DHT22;18207;32.078;34.818;2022-08-21T10:50:43;36.70;44.50
23618;DHT22;18207;32.078;34.818;2022-08-21T10:53:36;36.70;44.60
23618;DHT22;18207;32.078;34.818;2022-08-21T10:56:22;36.70;45.00
23618;DHT22;18207;32.078;34.818;2022-08-21T10:59:07;36.70;44.50
23618;DHT22;18207;32.078;34.818;2022-08-21T11:01:54;36.70;44.30
23618;DHT22;18207;32.078;34.818;2022-08-21T11:04:34;36.70;44.30
23618;DHT22;18207;32.078;34.818;2022-08-21T11:07:19;36.60;44.20
23618;DHT22;18207;32.078;34.818;2022-08-21T11:10:03;36.70;44.30
23618;DHT22;18207;32.078;34.818;2022-08-21T11:12:50;36.60;44.30
23618;DHT22;18207;32.078;34.818;2022-08-21T11:15:38;36.60;44.30
23618;DHT22;18207;32.078;34.818;2022-08-21T11:18:24;36.60;44.40
23618;DHT22;18207;32.078;34.818;2022-08-21T11:21:20;36.60;44.40
23618;DHT22;18207;32.078;34.818;2022-08-21T11:24:03;36.60;44.20
23618;DHT22;18207;32.078;34.818;2022-08-21T11:26:50;36.60;44.30
23618;DHT22;18207;32.078;34.818;2022-08-21T11:29:29;36.60;44.40
23618;DHT22;18207;32.078;34.818;2022-08-21T11:32:20;36.60;44.40
23618;DHT22;18207;32.078;34.818;2022-08-21T11:35:32;36.50;44.30
23618;DHT22;18207;32.078;34.818;2022-08-21T11:38:17;36.50;44.10
23618;DHT22;18207;32.078;34.818;2022-08-21T11:41:13;36.50;44.10
23618;DHT22;18207;32.078;34.818;2022-08-21T11:44:00;36.50;44.10
23618;DHT22;18207;32.078;34.818;2022-08-21T11:46:49;36.50;44.20
23618;DHT22;18207;32.078;34.818;2022-08-21T11:49:39;36.50;44.10
23618;DHT22;18207;32.078;34.818;2022-08-21T11:52:22;36.40;43.90
23618;DHT22;18207;32.078;34.818;2022-08-21T11:55:05;36.40;43.90
23618;DHT22;18207;32.078;34.818;2022-08-21T11:57:52;36.40;43.90
23618;DHT22;18207;32.078;34.818;2022-08-21T12:00:32;36.40;43.80
23618;DHT22;18207;32.078;34.818;2022-08-21T12:03:16;36.40;43.80
23618;DHT22;18207;32.078;34.818;2022-08-21T12:05:57;36.40;43.80
23618;DHT22;18207;32.078;34.818;2022-08-21T12:08:33;36.40;43.80
23618;DHT22;18207;32.078;34.818;2022-08-21T12:11:09;36.40;43.80
23618;DHT22;18207;32.078;34.818;2022-08-21T12:13:59;36.30;43.70
23618;DHT22;18207;32.078;34.818;2022-08-21T12:16:43;36.30;43.50
23618;DHT22;18207;32.078;34.818;2022-08-21T12:19:31;36.30;43.40
23618;DHT22;18207;32.078;34.818;2022-08-21T12:22:10;36.30;43.10
23618;DHT22;18207;32.078;34.818;2022-08-21T12:24:44;36.30;43.30
23618;DHT22;18207;32.078;34.818;2022-08-21T12:27:26;36.20;43.30
23618;DHT22;18207;32.078;34.818;2022-08-21T12:30:02;36.20;43.10
23618;DHT22;18207;32.078;34.818;2022-08-21T12:32:44;36.20;43.10
23618;DHT22;18207;32.078;34.818;2022-08-21T12:35:32;36.10;42.80
23618;DHT22;18207;32.078;34.818;2022-08-21T12:38:12;36.20;42.80
23618;DHT22;18207;32.078;34.818;2022-08-21T12:40:52;36.10;42.70
23618;DHT22;18207;32.078;34.818;2022-08-21T12:43:29;36.10;42.70
23618;DHT22;18207;32.078;34.818;2022-08-21T12:46:17;36.10;42.70
23618;DHT22;18207;32.078;34.818;2022-08-21T12:48:54;36.00;42.60
23618;DHT22;18207;32.078;34.818;2022-08-21T12:51:41;36.00;42.60
23618;DHT22;18207;32.078;34.818;2022-08-21T12:54:28;36.00;42.50
23618;DHT22;18207;32.078;34.818;2022-08-21T12:57:02;36.00;42.40
23618;DHT22;18207;32.078;34.818;2022-08-21T12:59:40;35.90;42.30
23618;DHT22;18207;32.078;34.818;2022-08-21T13:02:16;35.90;42.10
23618;DHT22;18207;32.078;34.818;2022-08-21T13:04:52;35.80;42.00
23618;DHT22;18207;32.078;34.818;2022-08-21T13:07:29;35.80;42.10
23618;DHT22;18207;32.078;34.818;2022-08-21T13:10:04;35.80;42.10
23618;DHT22;18207;32.078;34.818;2022-08-21T13:12:41;35.70;42.10
23618;DHT22;18207;32.078;34.818;2022-08-21T13:15:14;35.70;41.90
23618;DHT22;18207;32.078;34.818;2022-08-21T13:18:00;35.70;41.90
23618;DHT22;18207;32.078;34.818;2022-08-21T13:20:35;35.60;41.90
23618;DHT22;18207;32.078;34.818;2022-08-21T13:23:21;35.60;41.90
23618;DHT22;18207;32.078;34.818;2022-08-21T13:25:58;35.60;41.70
23618;DHT22;18207;32.078;34.818;2022-08-21T13:28:35;35.60;42.00
23618;DHT22;18207;32.078;34.818;2022-08-21T13:31:08;35.60;42.00
23618;DHT22;18207;32.078;34.818;2022-08-21T13:33:41;35.60;42.00
23618;DHT22;18207;32.078;34.818;2022-08-21T13:36:21;35.50;42.00
23618;DHT22;18207;32.078;34.818;2022-08-21T13:38:57;35.50;42.10
23618;DHT22;18207;32.078;34.818;2022-08-21T13:41:33;35.50;42.10
23618;DHT22;18207;32.078;34.818;2022-08-21T13:44:15;35.50;42.20
23618;DHT22;18207;32.078;34.818;2022-08-21T13:46:49;35.40;42.10
23618;DHT22;18207;32.078;34.818;2022-08-21T13:49:26;35.40;42.20
23618;DHT22;18207;32.078;34.818;2022-08-21T13:52:01;35.40;42.30
23618;DHT22;18207;32.078;34.818;2022-08-21T13:54:38;35.30;42.20
23618;DHT22;18207;32.078;34.818;2022-08-21T13:57:19;35.30;42.30
23618;DHT22;18207;32.078;34.818;2022-08-21T14:00:11;35.30;42.40
23618;DHT22;18207;32.078;34.818;2022-08-21T14:02:46;35.20;42.30
23618;DHT22;18207;32.078;34.818;2022-08-21T14:05:22;35.20;42.50
23618;DHT22;18207;32.078;34.818;2022-08-21T14:08:03;35.20;42.70
23618;DHT22;18207;32.078;34.818;2022-08-21T14:10:43;35.20;42.80
23618;DHT22;18207;32.078;34.818;2022-08-21T14:13:39;35.10;42.80
23618;DHT22;18207;32.078;34.818;2022-08-21T14:16:19;35.10;42.80
23618;DHT22;18207;32.078;34.818;2022-08-21T14:21:42;35.00;42.90
23618;DHT22;18207;32.078;34.818;2022-08-21T14:24:24;35.10;42.90
23618;DHT22;18207;32.078;34.818;2022-08-21T14:27:04;35.00;42.90
23618;DHT22;18207;32.078;34.818;2022-08-21T14:29:39;35.00;43.00
23618;DHT22;18207;32.078;34.818;2022-08-21T14:32:14;35.00;43.10
23618;DHT22;18207;32.078;34.818;2022-08-21T14:34:51;34.90;43.10
23618;DHT22;18207;32.078;34.818;2022-08-21T14:37:25;34.90;43.20
23618;DHT22;18207;32.078;34.818;2022-08-21T14:39:56;34.90;43.10
23618;DHT22;18207;32.078;34.818;2022-08-21T14:42:30;34.90;43.20
23618;DHT22;18207;32.078;34.818;2022-08-21T14:45:14;34.90;43.30
23618;DHT22;18207;32.078;34.818;2022-08-21T14:47:54;34.90;43.30
23618;DHT22;18207;32.078;34.818;2022-08-21T14:50:24;34.90;43.20
23618;DHT22;18207;32.078;34.818;2022-08-21T14:52:56;34.80;43.20
23618;DHT22;18207;32.078;34.818;2022-08-21T14:55:27;34.80;43.30
23618;DHT22;18207;32.078;34.818;2022-08-21T14:58:04;34.80;43.30
23618;DHT22;18207;32.078;34.818;2022-08-21T15:00:36;34.80;43.30
23618;DHT22;18207;32.078;34.818;2022-08-21T15:03:07;34.80;43.30
23618;DHT22;18207;32.078;34.818;2022-08-21T15:05:39;34.70;43.30
23618;DHT22;18207;32.078;34.818;2022-08-21T15:08:10;34.70;43.40
23618;DHT22;18207;32.078;34.818;2022-08-21T15:10:41;34.70;43.40
23618;DHT22;18207;32.078;34.818;2022-08-21T15:13:36;34.70;43.40
23618;DHT22;18207;32.078;34.818;2022-08-21T15:16:09;34.70;43.40
23618;DHT22;18207;32.078;34.818;2022-08-21T15:18:41;34.60;43.40
23618;DHT22;18207;32.078;34.818;2022-08-21T15:21:12;34.70;43.50
23618;DHT22;18207;32.078;34.818;2022-08-21T15:23:43;34.60;43.40
23618;DHT22;18207;32.078;34.818;2022-08-21T15:26:14;34.60;43.40
23618;DHT22;18207;32.078;34.818;2022-08-21T15:28:46;34.60;43.40
23618;DHT22;18207;32.078;34.818;2022-08-21T15:31:17;34.60;43.30
23618;DHT22;18207;32.078;34.818;2022-08-21T15:33:48;34.50;43.30
23618;DHT22;18207;32.078;34.818;2022-08-21T15:36:19;34.50;43.40
23618;DHT22;18207;32.078;34.818;2022-08-21T15:38:50;34.50;43.40
23618;DHT22;18207;32.078;34.818;2022-08-21T15:41:21;34.50;43.60
23618;DHT22;18207;32.078;34.818;2022-08-21T15:43:54;34.40;43.50
23618;DHT22;18207;32.078;34.818;2022-08-21T15:46:25;34.40;43.40
23618;DHT22;18207;32.078;34.818;2022-08-21T15:48:56;34.40;43.30
23618;DHT22;18207;32.078;34.818;2022-08-21T15:51:28;34.40;43.40
23618;DHT22;18207;32.078;34.818;2022-08-21T15:53:59;34.40;43.40
23618;DHT22;18207;32.078;34.818;2022-08-21T15:56:34;34.30;43.40
23618;DHT22;18207;32.078;34.818;2022-08-21T15:59:19;34.30;43.40
23618;DHT22;18207;32.078;34.818;2022-08-21T16:01:52;34.30;43.40
23618;DHT22;18207;32.078;34.818;2022-08-21T16:04:25;34.30;43.50
23618;DHT22;18207;32.078;34.818;2022-08-21T16:06:57;34.30;43.40
23618;DHT22;18207;32.078;34.818;2022-08-21T16:09:33;34.30;43.40
23618;DHT22;18207;32.078;34.818;2022-08-21T16:12:05;34.20;43.30